Maersk Bali — 9V7499 — position and weather

sailwx.info

Track history (hours):
 
Tides and Currents Weather Stations Pressure Air Temp Water Temp Dewpoint Dewpoint Depression Visibility Wind Speed Wind Dir Waves Ship Positions

Maersk Bali

Last reported at 2017-Jan-16 02:21 UTC. Time now 2017-Jan-21 15:38 UTC.
Position N 35°54' E 018°15'.

Length 223 m; draft 10.5 m.

Type: Ship (hazmat cat A). MMSI: 563102000.

Date/timePositionNaut miles runAvg speedWind from/ knotsBaromVisibWave heightAir tempDewpointWater temp
2017-Jan-16 02:21N 35°54' E 018°15'1012.2
2017-Jan-16 01:33N 35°54' E 018°03'16912.0
2017-Jan-15 11:27N 35°48' E 014°35'3 0.2
2017-Jan-14 23:28N 35°49' E 014°32'9 4.8
2017-Jan-14 21:33N 35°46' E 014°22'1515.1
2017-Jan-14 20:33N 35°54' E 014°06'1413.6
2017-Jan-14 19:33N 36°01' E 013°51'1412.8
2017-Jan-14 18:29N 36°09' E 013°37'  
2017-Jan-12 14:16N 36°46' E 000°15'3812.5
2017-Jan-12 11:13N 36°39' W 000°31'812.0
2017-Jan-12 10:33N 36°37' W 000°41'9811.9
2017-Jan-12 02:18N 36°19' W 002°41'11411.4
2017-Jan-11 16:21N 36°02' W 005°00'1113.9
2017-Jan-11 15:32N 36°00' W 005°14'14 1.2
2017-Jan-11 04:09N 35°56' W 005°30'5 8.1
2017-Jan-11 03:33N 35°60' W 005°26'9 9.5
2017-Jan-11 02:33N 36°04' W 005°15'8 8.2
2017-Jan-11 01:33N 36°08' W 005°24'2 1.7
2017-Jan-11 00:31N 36°08' W 005°26'0 0.0
2017-Jan-10 21:25N 36°08' W 005°26'0 0.0
2017-Jan-10 06:32N 36°08' W 005°26'7 7.1
2017-Jan-10 05:34N 36°02' W 005°22'4321.2
2017-Jan-10 03:31N 35°52' W 006°14'8420.7
2017-Jan-09 23:29N 35°34' W 007°55'2320.4
2017-Jan-09 22:22N 35°29' W 008°22'  
Track history (hours):
 
Tides and Currents Weather Stations Pressure Air Temp Water Temp Dewpoint Dewpoint Depression Visibility Wind Speed Wind Dir Waves Ship Positions

Maersk Bali

Last reported at 2017-Jan-16 02:21 UTC. Time now 2017-Jan-21 15:38 UTC.
Position N 35°54' E 018°15'.

Length 223 m; draft 10.5 m.

Type: Ship (hazmat cat A). MMSI: 563102000.

Date/timePositionNaut miles runAvg speedWind from/ knotsBaromVisibWave heightAir tempDewpointWater temp
2017-Jan-16 02:21N 35°54' E 018°15'1012.2
2017-Jan-16 01:33N 35°54' E 018°03'16912.0
2017-Jan-15 11:27N 35°48' E 014°35'3 0.2
2017-Jan-14 23:28N 35°49' E 014°32'9 4.8
2017-Jan-14 21:33N 35°46' E 014°22'1515.1
2017-Jan-14 20:33N 35°54' E 014°06'1413.6
2017-Jan-14 19:33N 36°01' E 013°51'1412.8
2017-Jan-14 18:29N 36°09' E 013°37'  
2017-Jan-12 14:16N 36°46' E 000°15'3812.5
2017-Jan-12 11:13N 36°39' W 000°31'812.0
2017-Jan-12 10:33N 36°37' W 000°41'9811.9
2017-Jan-12 02:18N 36°19' W 002°41'11411.4
2017-Jan-11 16:21N 36°02' W 005°00'1113.9
2017-Jan-11 15:32N 36°00' W 005°14'14 1.2
2017-Jan-11 04:09N 35°56' W 005°30'5 8.1
2017-Jan-11 03:33N 35°60' W 005°26'9 9.5
2017-Jan-11 02:33N 36°04' W 005°15'8 8.2
2017-Jan-11 01:33N 36°08' W 005°24'2 1.7
2017-Jan-11 00:31N 36°08' W 005°26'0 0.0
2017-Jan-10 21:25N 36°08' W 005°26'0 0.0
2017-Jan-10 06:32N 36°08' W 005°26'7 7.1
2017-Jan-10 05:34N 36°02' W 005°22'4321.2
2017-Jan-10 03:31N 35°52' W 006°14'8420.7
2017-Jan-09 23:29N 35°34' W 007°55'2320.4
2017-Jan-09 22:22N 35°29' W 008°22'  

Dump ship's entire track history